Weather at Campo di Volo Cugno

Public forecast

Using degrees Celsius for public forecast. Weather courtesy of forecast.io.

Closest aviation weather report (METAR) to Campo di Volo Cugno

Closest report is Sigonella Navy Air Base, 14.8 nm (27.3 km) E. Retrieved 2020/11/29 14:55 UTC (1 hour ago):

LICZ 291455Z 21002KT 4500 -RA BR SCT020 BKN060 15/15 Q1007 RMK BKN VIS MIN 4500 WIND THR28 21003KT WIND THR10 23002KT A2976 GRN

Closest aviation forecast (TAF) to Campo di Volo Cugno

Closest forecast is Sigonella Navy Air Base, 14.8 nm (27.3 km) E. Retrieved 2020/11/29 12:25 UTC (4 hours ago):

TAF LICZ 291100Z 2912/3012 30003KT 9999 FEW050 TEMPO 2912/2916 6000 TSRA SCT025 FEW040TCU